Belmont, Wisconsin
Current Conditions -  °F | °C
As of 8:35 PM on Friday 24 Oct 2014 (Local Time) from KPVB Reporting Station
Scattered Clouds Scattered Clouds  
Wind Chill: 56°   Ceiling: Unl
Heat Index: 56°   Visibility: 10mi
Dew Point: 53°   Wind: 5mph
Humidity: 92%   Direction: 220°SW
Pressure: 29.93"   Gusts: NA
Location:  42.74°N, 90.33°W
Report Text: KPVB 250135Z AUTO 22004KT 10SM SCT017 SCT036 13/12 A2993 RMK AO1 T01310119
Loading
Personal Weather Stations






























Interactive Weather Map
Tropical Storm Tracking
New forecast layout! Learn more

10-Day Weather Forecast

Advertisements
Track Severe Weather on mobile